Terminal Aerodrome Forecast
Issued by NWS Boise, ID

Home | Current Version | Previous Version | Text Only | Print | Product List | Glossary On
Versions: 1 2 3 4 5 6 7 8 9 10 11 12 13 14 15 16 17
000
FTUS45 KBOI 160538
TAFBOI
TAF
KBOI 160538Z 1606/1706 32009KT 1 1/2SM -SN BR OVC006
     FM160630 32011KT 5SM BR SCT010 OVC030
     FM161800 31012G22KT P6SM BKN035
     FM170300 31006KT 4SM BR SCT003=

USA.gov is the U.S. government's official web portal to all federal, state and local government web resources and services.